Time;durP1;ratioP1;P1;durP2;ratioP2;P2;SDS_P1;SDS_P2;PMS_P1;PMS_P2;Temp;Humidity;BMP_temperature;BMP_pressure;BME280_temperature;BME280_humidity;BME280_pressure;Samples;Min_cycle;Max_cycle;Signal;HPM_P1;HPM_P2
2024/01/08 00:00:37;;;;;;;3.00;1.90;;;;;;;2.79;100.00;95980.14;110543;1239;71321;-74
2024/01/08 00:03:27;;;;;;;2.60;2.20;;;;;;;2.77;100.00;95983.56;110560;1238;68399;-72
2024/01/08 00:05:57;;;;;;;4.00;2.60;;;;;;;2.76;100.00;95987.06;110463;1242;69942;-72
2024/01/08 00:08:27;;;;;;;3.10;2.40;;;;;;;2.72;100.00;95994.55;110526;1238;59734;-73
2024/01/08 00:10:57;;;;;;;;;;;;;;;2.68;100.00;95996.17;110427;1242;59672;-72
2024/01/08 00:13:28;;;;;;;3.20;2.40;;;;;;;2.64;100.00;96000.24;110432;1242;71420;-74
2024/01/08 00:15:58;;;;;;;4.20;2.40;;;;;;;2.63;100.00;96004.23;110503;1240;70100;-72
2024/01/08 00:18:29;;;;;;;2.40;2.10;;;;;;;2.62;100.00;96010.48;110586;1240;69416;-72
2024/01/08 00:21:02;;;;;;;3.20;2.00;;;;;;;2.62;100.00;96014.30;110613;1239;59811;-72
2024/01/08 00:23:35;;;;;;;3.50;2.70;;;;;;;2.64;100.00;96016.94;110465;1242;59658;-72
2024/01/08 00:26:05;;;;;;;2.80;2.20;;;;;;;2.65;100.00;96016.86;110521;1241;70720;-72
2024/01/08 00:28:35;;;;;;;2.40;2.10;;;;;;;2.64;100.00;96022.96;110529;1242;69056;-72
2024/01/08 00:31:05;;;;;;;2.70;2.30;;;;;;;2.64;100.00;96023.13;110512;1242;69822;-73
2024/01/08 00:33:35;;;;;;;3.30;2.50;;;;;;;2.64;100.00;96029.11;110532;1238;59686;-73
2024/01/08 00:36:05;;;;;;;4.10;3.10;;;;;;;2.63;100.00;96030.92;110447;1241;59650;-72
2024/01/08 00:38:35;;;;;;;;;;;;;;;2.62;100.00;96029.09;110545;1241;71948;-73
2024/01/08 00:41:05;;;;;;;4.20;2.50;;;;;;;2.58;100.00;96032.60;110397;1238;69640;-71
2024/01/08 00:43:36;;;;;;;3.10;2.50;;;;;;;2.57;100.00;96029.92;110652;1241;68161;-72
2024/01/08 00:46:07;;;;;;;3.60;2.60;;;;;;;2.60;100.00;96031.14;110546;1238;59737;-72
2024/01/08 00:48:38;;;;;;;3.80;2.30;;;;;;;2.59;100.00;96033.58;110502;1240;59661;-72
2024/01/08 00:51:09;;;;;;;3.50;2.70;;;;;;;2.60;100.00;96033.89;110490;1240;71236;-73
2024/01/08 00:53:40;;;;;;;2.60;2.40;;;;;;;2.62;100.00;96034.40;110519;1241;69233;-72
2024/01/08 00:56:13;;;;;;;4.50;3.00;;;;;;;2.63;100.00;96036.39;110430;1239;68813;-72
2024/01/08 00:58:44;;;;;;;2.90;2.30;;;;;;;2.64;100.00;96035.69;110333;1242;60132;-72
2024/01/08 01:01:15;;;;;;;3.70;2.80;;;;;;;2.65;100.00;96038.35;110472;1241;59669;-72
2024/01/08 01:03:46;;;;;;;3.70;2.50;;;;;;;2.63;100.00;96040.23;110424;1241;70774;-72
2024/01/08 01:06:22;;;;;;;3.00;2.20;;;;;;;2.64;100.00;96040.98;110412;1241;68953;-71
2024/01/08 01:08:52;;;;;;;2.70;1.90;;;;;;;2.68;100.00;96042.96;110430;1242;69124;-72
2024/01/08 01:11:24;;;;;;;3.30;2.00;;;;;;;2.73;100.00;96047.84;110348;1241;59680;-72
2024/01/08 01:13:55;;;;;;;3.00;2.20;;;;;;;2.76;100.00;96052.59;110131;1239;59736;-72
2024/01/08 01:16:29;;;;;;;3.30;1.90;;;;;;;2.78;100.00;96054.86;110287;1241;70885;-72
2024/01/08 01:19:00;;;;;;;3.60;2.60;;;;;;;2.80;100.00;96055.98;110217;1244;69230;-72
2024/01/08 01:21:33;;;;;;;3.50;2.30;;;;;;;2.81;100.00;96059.52;110340;1241;69257;-72
2024/01/08 01:24:04;;;;;;;3.70;2.50;;;;;;;2.81;100.00;96059.69;110221;1242;59753;-73
2024/01/08 01:26:37;;;;;;;3.00;2.20;;;;;;;2.83;100.00;96062.49;110295;1242;59673;-73
2024/01/08 01:29:07;;;;;;;3.30;2.10;;;;;;;2.84;100.00;96063.14;110459;1239;71510;-73
2024/01/08 01:31:40;;;;;;;4.20;2.40;;;;;;;2.84;100.00;96063.83;110486;1238;69222;-73
2024/01/08 01:34:11;;;;;;;2.50;2.10;;;;;;;2.85;100.00;96067.38;110441;1238;67846;-73
2024/01/08 01:36:42;;;;;;;4.10;2.50;;;;;;;2.85;100.00;96066.64;110470;1239;59734;-73
2024/01/08 01:39:12;;;;;;;2.60;2.20;;;;;;;2.86;100.00;96064.54;110447;1239;59669;-73
2024/01/08 01:41:43;;;;;;;4.00;2.80;;;;;;;2.87;100.00;96066.88;110417;1241;71626;-73
2024/01/08 01:44:15;;;;;;;3.80;3.10;;;;;;;2.89;100.00;96069.52;110460;1241;68585;-73
2024/01/08 01:46:48;;;;;;;3.10;2.50;;;;;;;2.89;100.00;96074.16;110354;1242;69582;-73
2024/01/08 01:49:20;;;;;;;3.60;2.80;;;;;;;2.84;100.00;96073.61;110402;1246;59669;-73
2024/01/08 01:51:55;;;;;;;3.20;2.40;;;;;;;2.78;100.00;96074.34;110385;1242;59720;-72
2024/01/08 01:54:30;;;;;;;3.50;2.50;;;;;;;2.76;100.00;96078.06;110422;1241;71500;-72
2024/01/08 01:57:04;;;;;;;2.90;2.20;;;;;;;2.77;100.00;96081.63;110328;1242;69283;-72
2024/01/08 01:59:35;;;;;;;3.00;2.70;;;;;;;2.77;100.00;96083.49;110281;1242;68481;-72
2024/01/08 02:02:09;;;;;;;3.10;2.10;;;;;;;2.80;100.00;96078.81;110411;1245;59734;-71
2024/01/08 02:04:43;;;;;;;2.90;1.80;;;;;;;2.83;100.00;96079.02;110460;1241;59657;-72
2024/01/08 02:07:16;;;;;;;3.10;2.50;;;;;;;2.84;100.00;96079.28;110559;1239;71071;-72
2024/01/08 02:09:46;;;;;;;2.60;2.10;;;;;;;2.84;100.00;96078.09;110387;1241;69288;-72
2024/01/08 02:12:18;;;;;;;2.90;2.10;;;;;;;2.83;100.00;96077.14;110360;1241;69319;-72
2024/01/08 02:14:48;;;;;;;2.20;1.90;;;;;;;2.82;100.00;96079.93;110279;1244;59716;-72
2024/01/08 02:17:18;;;;;;;3.00;2.30;;;;;;;2.83;100.00;96082.13;110441;1241;59773;-72
2024/01/08 02:19:49;;;;;;;2.80;2.00;;;;;;;2.80;100.00;96079.88;110393;1238;71388;-71
2024/01/08 02:22:21;;;;;;;2.20;1.70;;;;;;;2.78;100.00;96084.33;110258;1242;68528;-71
2024/01/08 02:24:52;;;;;;;2.50;2.10;;;;;;;2.75;100.00;96082.83;110399;1238;69289;-72
2024/01/08 02:27:23;;;;;;;2.20;2.00;;;;;;;2.70;100.00;96083.77;110476;1242;59703;-72
2024/01/08 02:29:54;;;;;;;2.00;1.80;;;;;;;2.68;100.00;96086.34;110363;1238;59737;-72
2024/01/08 02:32:25;;;;;;;3.10;2.00;;;;;;;2.65;100.00;96090.81;110341;1241;71215;-71
2024/01/08 02:34:56;;;;;;;3.10;2.20;;;;;;;2.59;100.00;96096.54;110426;1246;69249;-72
2024/01/08 02:37:27;;;;;;;2.50;2.10;;;;;;;2.54;100.00;96099.05;110377;1241;68449;-72
2024/01/08 02:39:57;;;;;;;3.10;2.10;;;;;;;2.50;100.00;96098.27;110563;1240;59666;-72
2024/01/08 02:42:28;;;;;;;2.80;1.90;;;;;;;2.48;100.00;96102.70;110572;1245;59666;-72
2024/01/08 02:45:00;;;;;;;3.50;2.20;;;;;;;2.47;100.00;96104.63;110496;1238;71476;-72
2024/01/08 02:47:37;;;;;;;3.30;2.20;;;;;;;2.45;100.00;96103.75;110287;1242;69154;-73
2024/01/08 02:50:12;;;;;;;2.90;2.30;;;;;;;2.45;100.00;96105.11;110339;1240;67553;-73
2024/01/08 02:52:52;;;;;;;3.30;2.10;;;;;;;2.43;100.00;96108.98;110230;1245;59721;-72
2024/01/08 02:55:24;;;;;;;3.50;2.40;;;;;;;2.42;100.00;96112.34;110423;1241;59682;-72
2024/01/08 02:57:54;;;;;;;3.40;2.20;;;;;;;2.42;100.00;96115.79;110450;1238;71402;-71
2024/01/08 03:00:25;;;;;;;3.90;2.60;;;;;;;2.41;100.00;96118.94;110264;1244;67352;-72
2024/01/08 03:02:59;;;;;;;2.90;2.10;;;;;;;2.43;100.00;96122.77;110337;1238;69144;-72
2024/01/08 03:05:31;;;;;;;3.00;2.40;;;;;;;2.46;100.00;96123.11;110361;1241;59698;-72
2024/01/08 03:08:03;;;;;;;3.00;2.40;;;;;;;2.48;100.00;96125.17;110357;1241;60142;-73
2024/01/08 03:10:35;;;;;;;3.40;2.10;;;;;;;2.50;100.00;96129.05;110417;1241;71424;-73
2024/01/08 03:13:09;;;;;;;3.10;2.20;;;;;;;2.51;100.00;96129.55;110506;1241;68787;-73
2024/01/08 03:15:42;;;;;;;2.50;2.00;;;;;;;2.50;100.00;96133.52;110436;1241;68490;-73
2024/01/08 03:18:13;;;;;;;2.00;1.80;;;;;;;2.52;100.00;96136.62;110591;1238;59738;-73
2024/01/08 03:20:46;;;;;;;3.20;2.10;;;;;;;2.55;100.00;96138.88;110401;1241;59688;-73
2024/01/08 03:23:16;;;;;;;2.30;1.80;;;;;;;2.56;100.00;96142.08;110475;1241;71227;-73
2024/01/08 03:25:47;;;;;;;2.20;1.90;;;;;;;2.57;100.00;96138.80;110358;1241;68375;-73
2024/01/08 03:28:22;;;;;;;2.80;2.20;;;;;;;2.58;100.00;96139.91;110350;1241;69303;-73
2024/01/08 03:30:53;;;;;;;3.10;2.20;;;;;;;2.61;100.00;96141.83;110350;1241;59734;-73
2024/01/08 03:33:25;;;;;;;3.40;2.40;;;;;;;2.62;100.00;96146.20;110360;1242;59638;-73
2024/01/08 03:35:59;;;;;;;3.20;2.20;;;;;;;2.64;100.00;96150.92;110335;1238;71558;-73
2024/01/08 03:38:32;;;;;;;2.50;2.00;;;;;;;2.65;100.00;96146.73;110375;1241;69427;-73
2024/01/08 03:41:03;;;;;;;3.70;2.20;;;;;;;2.67;100.00;96149.14;110367;1241;69341;-73
2024/01/08 03:43:36;;;;;;;3.20;2.00;;;;;;;2.70;100.00;96151.59;110366;1241;60060;-73
2024/01/08 03:46:08;;;;;;;3.40;2.50;;;;;;;2.70;100.00;96155.69;110358;1241;59739;-73
2024/01/08 03:48:39;;;;;;;2.90;2.30;;;;;;;2.71;100.00;96155.30;110353;1241;70762;-73
2024/01/08 03:51:11;;;;;;;3.10;2.30;;;;;;;2.72;100.00;96160.19;110234;1243;69376;-73
2024/01/08 03:53:45;;;;;;;3.30;2.10;;;;;;;2.71;100.00;96165.41;110399;1242;68597;-71
2024/01/08 03:56:18;;;;;;;3.30;2.30;;;;;;;2.67;100.00;96168.05;110360;1238;59685;-74
2024/01/08 03:58:52;;;;;;;4.10;2.50;;;;;;;2.67;100.00;96170.30;110360;1241;59749;-72
2024/01/08 04:01:23;;;;;;;3.10;2.50;;;;;;;2.67;100.00;96172.23;110377;1239;70955;-72
2024/01/08 04:03:54;;;;;;;3.20;2.10;;;;;;;2.66;100.00;96175.36;110290;1242;69288;-72
2024/01/08 04:06:26;;;;;;;4.50;2.70;;;;;;;2.65;100.00;96178.71;110389;1241;69295;-72
2024/01/08 04:08:57;;;;;;;3.20;2.30;;;;;;;2.62;100.00;96182.34;110281;1241;59753;-72
2024/01/08 04:11:29;;;;;;;4.40;2.90;;;;;;;2.56;100.00;96186.16;110256;1242;59766;-72
2024/01/08 04:14:01;;;;;;;3.10;2.40;;;;;;;2.57;100.00;96187.11;110263;1241;71419;-72
2024/01/08 04:16:32;;;;;;;3.80;3.00;;;;;;;2.59;100.00;96191.29;110245;1242;69292;-72
2024/01/08 04:19:02;;;;;;;;;;;;;;;2.52;100.00;96192.06;110273;1241;68575;-72
2024/01/08 04:21:33;;;;;;;4.30;3.30;;;;;;;2.50;100.00;96198.33;110265;1242;59742;-72
2024/01/08 04:24:04;;;;;;;3.70;2.60;;;;;;;2.48;100.00;96198.14;110151;1244;59684;-72
2024/01/08 04:26:34;;;;;;;4.10;2.90;;;;;;;2.49;100.00;96199.07;110275;1241;72170;-72
2024/01/08 04:29:05;;;;;;;5.50;3.30;;;;;;;2.48;100.00;96206.91;110287;1241;68388;-71
2024/01/08 04:31:36;;;;;;;4.60;3.40;;;;;;;2.47;100.00;96214.52;110251;1241;69658;-72
2024/01/08 04:34:09;;;;;;;5.20;3.80;;;;;;;2.48;100.00;96217.03;110284;1241;59706;-72
2024/01/08 04:36:43;;;;;;;5.30;3.00;;;;;;;2.45;100.00;96223.56;110324;1241;59633;-72
2024/01/08 04:39:14;;;;;;;4.90;3.50;;;;;;;2.47;100.00;96220.35;110248;1241;70687;-72
2024/01/08 04:41:45;;;;;;;5.20;4.00;;;;;;;2.48;100.00;96224.96;110306;1241;69103;-72
2024/01/08 04:44:17;;;;;;;6.10;5.00;;;;;;;2.46;100.00;96229.21;110244;1241;69151;-72
2024/01/08 04:46:50;;;;;;;7.00;4.40;;;;;;;2.45;100.00;96231.17;110184;1241;59824;-72
2024/01/08 04:49:21;;;;;;;5.80;4.40;;;;;;;2.43;100.00;96234.01;110255;1241;59685;-72
2024/01/08 04:51:51;;;;;;;6.00;4.70;;;;;;;2.42;100.00;96239.27;110276;1240;71368;-72
2024/01/08 04:54:22;;;;;;;7.30;4.30;;;;;;;2.39;100.00;96242.69;110283;1240;68355;-72
2024/01/08 04:56:55;;;;;;;5.10;3.80;;;;;;;2.39;100.00;96244.05;110235;1244;69321;-72
2024/01/08 04:59:25;;;;;;;6.30;4.80;;;;;;;2.35;100.00;96246.69;110282;1240;59679;-72
2024/01/08 05:01:55;;;;;;;7.50;5.10;;;;;;;2.30;100.00;96251.67;110115;1244;59676;-72
2024/01/08 05:04:25;;;;;;;;;;;;;;;2.31;100.00;96258.64;110367;1242;71462;-72
2024/01/08 05:06:55;;;;;;;;;;;;;;;2.31;100.00;96263.27;110280;1242;69448;-72
2024/01/08 05:09:25;;;;;;;5.30;4.40;;;;;;;2.31;100.00;96263.45;110227;1241;69387;-71
2024/01/08 05:11:55;;;;;;;6.60;4.20;;;;;;;2.31;100.00;96265.68;110182;1242;59741;-72
2024/01/08 05:14:25;;;;;;;6.20;4.60;;;;;;;2.32;100.00;96264.44;110189;1241;59706;-72
2024/01/08 05:16:55;;;;;;;7.70;4.60;;;;;;;2.32;100.00;96269.77;110165;1240;71644;-71
2024/01/08 05:19:26;;;;;;;5.70;4.00;;;;;;;2.33;100.00;96275.04;110241;1243;68465;-71
2024/01/08 05:21:56;;;;;;;6.30;4.50;;;;;;;2.34;100.00;96275.00;110149;1242;68610;-74
2024/01/08 05:24:27;;;;;;;6.50;3.70;;;;;;;2.34;100.00;96277.91;110292;1245;59728;-73
2024/01/08 05:26:56;;;;;;;4.70;3.40;;;;;;;2.36;100.00;96280.88;110179;1242;59714;-72
2024/01/08 05:29:27;;;;;;;5.20;3.20;;;;;;;2.39;100.00;96285.52;110202;1241;71465;-72
2024/01/08 05:31:57;;;;;;;4.40;2.80;;;;;;;2.42;100.00;96292.72;110202;1242;68500;-72
2024/01/08 05:34:27;;;;;;;4.80;3.00;;;;;;;2.44;100.00;96295.88;110197;1241;68587;-72
2024/01/08 05:36:57;;;;;;;;;;;;;;;2.46;100.00;96299.55;110172;1243;59773;-72
2024/01/08 05:39:27;;;;;;;3.20;2.60;;;;;;;2.45;100.00;96298.73;110228;1242;59661;-72
2024/01/08 05:41:58;;;;;;;4.30;3.00;;;;;;;2.45;100.00;96299.75;110300;1240;71261;-72
2024/01/08 05:44:29;;;;;;;5.70;3.60;;;;;;;2.43;100.00;96299.37;110273;1242;69770;-72
2024/01/08 05:46:59;;;;;;;4.80;3.50;;;;;;;2.41;100.00;96301.92;110268;1241;69398;-72
2024/01/08 05:49:29;;;;;;;5.10;3.50;;;;;;;2.36;100.00;96304.80;110264;1242;59731;-72
2024/01/08 05:52:00;;;;;;;5.90;4.10;;;;;;;2.31;100.00;96307.29;110188;1244;59708;-72
2024/01/08 05:54:30;;;;;;;4.70;3.40;;;;;;;2.29;100.00;96305.85;110323;1241;70709;-72
2024/01/08 05:57:01;;;;;;;4.80;3.10;;;;;;;2.27;100.00;96309.05;110365;1241;68667;-72
2024/01/08 05:59:30;;;;;;;4.80;3.80;;;;;;;2.27;100.00;96312.31;110216;1242;69768;-72
2024/01/08 06:02:00;;;;;;;5.20;4.10;;;;;;;2.26;100.00;96316.34;110282;1241;59692;-73
2024/01/08 06:04:30;;;;;;;5.00;3.60;;;;;;;2.24;100.00;96321.60;110549;1241;59736;-74
2024/01/08 06:07:00;;;;;;;5.40;4.00;;;;;;;2.22;100.00;96329.33;110408;1241;71982;-71
2024/01/08 06:09:30;;;;;;;;;;;;;;;2.21;100.00;96328.64;110546;1241;69710;-71
2024/01/08 06:11:59;;;;;;;5.90;3.70;;;;;;;2.19;100.00;96332.09;110465;1239;69087;-71
2024/01/08 06:14:28;;;;;;;4.20;3.00;;;;;;;2.20;100.00;96335.77;110427;1241;59706;-72
2024/01/08 06:16:58;;;;;;;4.90;3.50;;;;;;;2.24;100.00;96337.11;110410;1248;59802;-72
2024/01/08 06:19:29;;;;;;;5.50;3.20;;;;;;;2.25;100.00;96336.02;110478;1238;71545;-72
2024/01/08 06:22:00;;;;;;;3.40;3.10;;;;;;;2.22;100.00;96340.13;110369;1241;69680;-72
2024/01/08 06:24:30;;;;;;;4.10;3.20;;;;;;;2.21;100.00;96342.77;110393;1241;69813;-72
2024/01/08 06:26:59;;;;;;;4.00;2.90;;;;;;;2.19;100.00;96348.01;110302;1245;59789;-71
2024/01/08 06:29:28;;;;;;;3.70;3.00;;;;;;;2.18;100.00;96357.02;110314;1242;59688;-73
2024/01/08 06:31:59;;;;;;;4.40;2.90;;;;;;;2.18;100.00;96361.30;110501;1240;71390;-70
2024/01/08 06:34:28;;;;;;;4.40;3.30;;;;;;;2.19;100.00;96366.08;110529;1240;69307;-72
2024/01/08 06:36:58;;;;;;;4.30;2.90;;;;;;;2.22;100.00;96367.48;110401;1241;69866;-72
2024/01/08 06:39:28;;;;;;;4.50;2.80;;;;;;;2.24;100.00;96372.52;110456;1241;59674;-73
2024/01/08 06:41:59;;;;;;;4.40;3.20;;;;;;;2.23;100.00;96374.43;110409;1246;59623;-72
2024/01/08 06:44:29;;;;;;;4.50;2.70;;;;;;;2.25;100.00;96380.67;110428;1241;71646;-72
2024/01/08 06:46:59;;;;;;;4.00;3.00;;;;;;;2.26;100.00;96388.72;110333;1241;69838;-72
2024/01/08 06:49:28;;;;;;;3.50;3.10;;;;;;;2.27;100.00;96394.32;110347;1238;69386;-72
2024/01/08 06:51:59;;;;;;;4.80;3.80;;;;;;;2.31;100.00;96393.80;110345;1242;59695;-73
2024/01/08 06:54:29;;;;;;;5.40;3.60;;;;;;;2.30;100.00;96395.88;110418;1239;59630;-73
2024/01/08 06:56:59;;;;;;;5.70;4.20;;;;;;;2.30;100.00;96402.21;110390;1238;71782;-73
2024/01/08 06:59:29;;;;;;;5.40;3.80;;;;;;;2.29;100.00;96405.26;110482;1238;68332;-72
2024/01/08 07:01:59;;;;;;;6.10;4.60;;;;;;;2.27;100.00;96407.74;110479;1238;69802;-72
2024/01/08 07:04:28;;;;;;;6.40;4.30;;;;;;;2.25;100.00;96408.41;110535;1238;59763;-71
2024/01/08 07:06:57;;;;;;;6.40;4.60;;;;;;;2.18;100.00;96414.26;110465;1238;59623;-72
2024/01/08 07:09:27;;;;;;;6.50;4.80;;;;;;;2.14;100.00;96413.46;110406;1238;72040;-72
2024/01/08 07:11:57;;;;;;;5.00;4.00;;;;;;;2.10;100.00;96421.63;110558;1238;70276;-72
2024/01/08 07:14:27;;;;;;;5.40;4.00;;;;;;;2.03;100.00;96424.02;110328;1241;68559;-72
2024/01/08 07:16:57;;;;;;;4.90;4.20;;;;;;;2.01;100.00;96428.92;110348;1238;59754;-72
2024/01/08 07:19:27;;;;;;;5.40;4.20;;;;;;;1.96;100.00;96428.88;110398;1238;59657;-72
2024/01/08 07:21:57;;;;;;;4.70;3.60;;;;;;;1.96;100.00;96435.40;110379;1238;72124;-71
2024/01/08 07:24:28;;;;;;;;;;;;;;;1.96;100.00;96436.27;110407;1241;69298;-72
2024/01/08 07:26:58;;;;;;;5.80;3.70;;;;;;;1.97;100.00;96442.05;110473;1241;69634;-72
2024/01/08 07:29:27;;;;;;;4.00;3.40;;;;;;;1.91;100.00;96439.83;110391;1241;60123;-72
2024/01/08 07:31:58;;;;;;;4.40;3.60;;;;;;;1.92;100.00;96445.44;110454;1249;59698;-73
2024/01/08 07:34:28;;;;;;;4.10;3.10;;;;;;;1.93;100.00;96444.84;110392;1241;71422;-74
2024/01/08 07:36:59;;;;;;;4.50;3.30;;;;;;;1.94;100.00;96445.85;110413;1238;69002;-71
2024/01/08 07:39:28;;;;;;;4.50;3.40;;;;;;;1.98;100.00;96452.86;110412;1238;69239;-74
2024/01/08 07:41:57;;;;;;;4.70;3.40;;;;;;;1.99;100.00;96458.77;110439;1241;59675;-73
2024/01/08 07:44:27;;;;;;;4.80;3.60;;;;;;;2.04;100.00;96462.80;110490;1241;59666;-72
2024/01/08 07:46:56;;;;;;;5.00;3.70;;;;;;;2.09;100.00;96465.31;110705;1241;71566;-72
2024/01/08 07:49:26;;;;;;;4.30;3.00;;;;;;;2.09;100.00;96467.89;110822;1241;67988;-72
2024/01/08 07:51:56;;;;;;;6.80;4.80;;;;;;;2.13;100.00;96471.63;111043;1238;69261;-72
2024/01/08 07:54:26;;;;;;;6.50;4.40;;;;;;;2.16;100.00;96473.52;111443;1238;59630;-72
2024/01/08 07:56:56;;;;;;;7.50;5.40;;;;;;;2.11;100.00;96477.39;111528;1238;59621;-72
2024/01/08 07:59:31;;;;;;;6.10;4.60;;;;;;;2.11;100.00;96480.99;110962;1241;71165;-72
2024/01/08 08:02:00;;;;;;;5.80;4.20;;;;;;;2.08;100.00;96484.77;110401;1245;69862;-72
2024/01/08 08:04:30;;;;;;;8.00;5.10;;;;;;;2.10;100.00;96488.30;110386;1241;69496;-72
2024/01/08 08:06:59;;;;;;;8.20;5.40;;;;;;;2.11;100.00;96493.23;110382;1241;59752;-72
2024/01/08 08:09:29;;;;;;;7.90;5.10;;;;;;;2.07;100.00;96495.15;110392;1240;60121;-72
2024/01/08 08:11:59;;;;;;;6.80;5.50;;;;;;;2.03;100.00;96503.40;110430;1241;71349;-72
2024/01/08 08:14:28;;;;;;;7.00;5.60;;;;;;;2.02;100.00;96505.55;110385;1241;69847;-72
2024/01/08 08:16:58;;;;;;;6.60;4.90;;;;;;;1.96;100.00;96507.23;110364;1241;69143;-72
2024/01/08 08:19:29;;;;;;;8.10;5.20;;;;;;;1.96;100.00;96512.73;110350;1242;59750;-72
2024/01/08 08:21:59;;;;;;;8.60;6.00;;;;;;;1.94;100.00;96511.12;110330;1241;59711;-72
2024/01/08 08:24:29;;;;;;;7.30;5.50;;;;;;;1.95;100.00;96520.88;110449;1241;71432;-72
2024/01/08 08:27:00;;;;;;;7.30;4.60;;;;;;;1.94;100.00;96521.94;110340;1241;69804;-72
2024/01/08 08:29:29;;;;;;;7.00;5.30;;;;;;;2.01;100.00;96524.30;110268;1241;68378;-72
2024/01/08 08:31:59;;;;;;;6.50;4.90;;;;;;;2.06;100.00;96530.59;110260;1242;59703;-72
2024/01/08 08:34:30;;;;;;;8.80;5.90;;;;;;;2.08;100.00;96533.59;110348;1241;59651;-72
2024/01/08 08:37:00;;;;;;;6.80;5.30;;;;;;;2.07;100.00;96535.17;110368;1241;71308;-72
2024/01/08 08:39:35;;;;;;;7.20;4.80;;;;;;;2.10;100.00;96540.35;110308;1241;67449;-72
2024/01/08 08:42:05;;;;;;;6.60;5.20;;;;;;;2.09;100.00;96546.10;110318;1240;69278;-73
2024/01/08 08:44:35;;;;;;;9.70;5.80;;;;;;;2.07;100.00;96544.80;110374;1241;59772;-73
2024/01/08 08:47:05;;;;;;;7.20;5.90;;;;;;;2.09;100.00;96551.61;110497;1242;59721;-73
2024/01/08 08:49:34;;;;;;;7.70;5.50;;;;;;;2.08;100.00;96554.39;110329;1242;71331;-74
2024/01/08 08:52:03;;;;;;;7.00;5.40;;;;;;;2.10;100.00;96554.84;110435;1241;69036;-72
2024/01/08 08:54:33;;;;;;;9.40;6.20;;;;;;;2.15;100.00;96557.27;110335;1242;69706;-72
2024/01/08 08:57:03;;;;;;;7.30;5.10;;;;;;;2.17;100.00;96559.58;110345;1241;59718;-73
2024/01/08 08:59:37;;;;;;;6.90;5.10;;;;;;;2.18;100.00;96556.27;110315;1241;59702;-73
2024/01/08 09:02:06;;;;;;;7.70;5.60;;;;;;;2.20;100.00;96560.80;110271;1241;71399;-72
2024/01/08 09:04:36;;;;;;;7.20;5.80;;;;;;;2.21;100.00;96558.83;110378;1241;70200;-72
2024/01/08 09:07:07;;;;;;;6.40;5.30;;;;;;;2.17;100.00;96563.70;110248;1241;69917;-72
2024/01/08 09:09:37;;;;;;;8.10;5.80;;;;;;;2.07;100.00;96561.81;110289;1241;59676;-72
2024/01/08 09:12:07;;;;;;;7.50;5.80;;;;;;;2.07;100.00;96563.22;110294;1241;59691;-73
2024/01/08 09:14:36;;;;;;;6.60;5.40;;;;;;;2.11;100.00;96562.32;110243;1241;70643;-72
2024/01/08 09:17:06;;;;;;;8.80;6.10;;;;;;;2.13;100.00;96566.52;110277;1241;69778;-73
2024/01/08 09:19:37;;;;;;;8.00;5.80;;;;;;;2.09;100.00;96567.91;110296;1240;69129;-72
2024/01/08 09:22:07;;;;;;;7.80;6.10;;;;;;;2.12;100.00;96571.00;110267;1242;59744;-72
2024/01/08 09:24:36;;;;;;;9.20;6.40;;;;;;;2.16;100.00;96569.96;110291;1241;59806;-72
2024/01/08 09:27:06;;;;;;;9.80;7.10;;;;;;;2.17;100.00;96572.82;110421;1241;70706;-72
2024/01/08 09:29:36;;;;;;;8.70;6.40;;;;;;;2.14;100.00;96572.11;110394;1244;69288;-72
2024/01/08 09:32:06;;;;;;;8.00;5.60;;;;;;;2.21;100.00;96577.91;110337;1241;68870;-72
2024/01/08 09:34:35;;;;;;;7.80;6.10;;;;;;;2.26;100.00;96573.19;110225;1242;59772;-71
2024/01/08 09:37:04;;;;;;;6.70;5.00;;;;;;;2.28;100.00;96573.27;110261;1241;59709;-72
2024/01/08 09:39:35;;;;;;;7.60;6.10;;;;;;;2.25;100.00;96570.70;110271;1241;71965;-72
2024/01/08 09:42:05;;;;;;;9.90;6.90;;;;;;;2.23;100.00;96576.29;110281;1241;69259;-72
2024/01/08 09:44:36;;;;;;;;;;;;;;;2.26;100.00;96576.29;110262;1242;69324;-72
2024/01/08 09:47:08;;;;;;;9.00;6.40;;;;;;;2.25;100.00;96578.09;110292;1240;60058;-72
2024/01/08 09:49:39;;;;;;;10.30;6.30;;;;;;;2.22;100.00;96576.69;110330;1242;59753;-73
2024/01/08 09:52:11;;;;;;;8.60;5.60;;;;;;;2.26;100.00;96575.45;110304;1241;71407;-73
2024/01/08 09:54:44;;;;;;;7.40;5.90;;;;;;;2.33;100.00;96576.77;110304;1241;68509;-71
2024/01/08 09:57:15;;;;;;;8.40;5.70;;;;;;;2.29;100.00;96571.98;110246;1242;69932;-73
2024/01/08 09:59:44;;;;;;;7.40;5.60;;;;;;;2.33;100.00;96574.05;110331;1241;59759;-72
2024/01/08 10:02:16;;;;;;;9.20;6.30;;;;;;;2.37;100.00;96575.91;110328;1241;60091;-72
2024/01/08 10:04:45;;;;;;;7.40;5.60;;;;;;;2.39;100.00;96580.77;110413;1241;71353;-73
2024/01/08 10:07:14;;;;;;;7.50;5.40;;;;;;;2.38;100.00;96580.33;110371;1241;69781;-73
2024/01/08 10:09:43;;;;;;;5.70;4.40;;;;;;;2.40;100.00;96579.16;110393;1241;68674;-73
2024/01/08 10:12:14;;;;;;;8.20;5.70;;;;;;;2.43;100.00;96579.52;110383;1242;59731;-72
2024/01/08 10:14:44;;;;;;;7.40;5.30;;;;;;;2.47;100.00;96580.18;110363;1241;59631;-73
2024/01/08 10:17:14;;;;;;;6.50;5.40;;;;;;;2.52;100.00;96581.96;110370;1241;70623;-72
2024/01/08 10:19:44;;;;;;;7.70;5.40;;;;;;;2.58;100.00;96580.27;110421;1241;69052;-72
2024/01/08 10:22:14;;;;;;;6.50;5.50;;;;;;;2.58;100.00;96579.76;110379;1241;70064;-72
2024/01/08 10:24:46;;;;;;;6.40;5.70;;;;;;;2.61;100.00;96582.52;110350;1241;59699;-72
2024/01/08 10:27:15;;;;;;;7.70;6.20;;;;;;;2.67;100.00;96586.17;110399;1241;59709;-72
2024/01/08 10:29:45;;;;;;;5.40;4.70;;;;;;;2.71;100.00;96588.52;110508;1242;71459;-72
2024/01/08 10:32:17;;;;;;;6.00;4.60;;;;;;;2.70;100.00;96587.05;110438;1238;68971;-72
2024/01/08 10:34:46;;;;;;;5.90;5.10;;;;;;;2.71;100.00;96588.51;110369;1242;69959;-72
2024/01/08 10:37:15;;;;;;;6.90;5.00;;;;;;;2.74;100.00;96587.48;110467;1242;59696;-72
2024/01/08 10:39:47;;;;;;;6.40;5.50;;;;;;;2.71;100.00;96591.76;110503;1242;60111;-72
2024/01/08 10:42:19;;;;;;;7.90;4.90;;;;;;;2.70;100.00;96595.62;110344;1242;71697;-72
2024/01/08 10:44:50;;;;;;;7.30;5.80;;;;;;;2.71;100.00;96593.87;110522;1238;69271;-72
2024/01/08 10:47:25;;;;;;;7.80;5.60;;;;;;;2.68;100.00;96599.71;110426;1238;69390;-72
2024/01/08 10:50:02;;;;;;;7.60;4.90;;;;;;;2.62;100.00;96602.25;110410;1242;59747;-72
2024/01/08 10:52:35;;;;;;;5.70;4.30;;;;;;;2.59;100.00;96602.42;110445;1248;59668;-73
2024/01/08 10:55:10;;;;;;;6.40;5.40;;;;;;;2.60;100.00;96602.88;110525;1240;72191;-73
2024/01/08 10:57:59;;;;;;;6.50;4.70;;;;;;;2.65;100.00;96611.73;110509;1238;68931;-73
2024/01/08 11:00:30;;;;;;;6.10;4.50;;;;;;;2.67;100.00;96610.08;110447;1238;69506;-73
2024/01/08 11:03:01;;;;;;;7.10;4.80;;;;;;;2.67;100.00;96609.52;110442;1241;59711;-73
2024/01/08 11:05:36;;;;;;;8.80;5.50;;;;;;;2.68;100.00;96608.13;109938;1241;718027;-73
2024/01/08 11:08:06;;;;;;;6.30;5.10;;;;;;;2.69;100.00;96613.57;110460;1242;71341;-73
2024/01/08 11:10:35;;;;;;;6.90;4.90;;;;;;;2.70;100.00;96613.33;110554;1242;69202;-73
2024/01/08 11:13:05;;;;;;;7.60;5.40;;;;;;;2.72;100.00;96612.55;110369;1241;69873;-73
2024/01/08 11:15:35;;;;;;;8.50;6.60;;;;;;;2.66;100.00;96615.48;110466;1242;60088;-73
2024/01/08 11:18:06;;;;;;;7.30;6.30;;;;;;;2.60;100.00;96614.71;110435;1242;59763;-73
2024/01/08 11:20:42;;;;;;;8.70;6.60;;;;;;;2.56;100.00;96616.48;110442;1242;71185;-73
2024/01/08 11:23:30;;;;;;;8.60;6.40;;;;;;;2.53;100.00;96620.26;110459;1238;69233;-73
2024/01/08 11:26:04;;;;;;;7.20;5.70;;;;;;;2.52;100.00;96623.55;110530;1242;69371;-73
2024/01/08 11:28:37;;;;;;;6.30;4.90;;;;;;;2.56;100.00;96622.85;110429;1242;59755;-73
2024/01/08 11:31:28;;;;;;;7.00;5.60;;;;;;;2.61;100.00;96624.99;110552;1243;59663;-73
2024/01/08 11:34:37;;;;;;;6.90;5.00;;;;;;;2.62;100.00;96624.96;110432;1242;72305;-72
2024/01/08 11:37:29;;;;;;;8.50;6.20;;;;;;;2.65;100.00;96627.90;110498;1242;69911;-73
2024/01/08 11:40:19;;;;;;;8.10;6.30;;;;;;;2.63;100.00;96630.91;110396;1241;69659;-72
2024/01/08 11:42:49;;;;;;;6.70;5.70;;;;;;;2.63;100.00;96631.61;110438;1242;59815;-72
2024/01/08 11:45:21;;;;;;;7.30;5.40;;;;;;;2.63;100.00;96630.05;110488;1242;59735;-72